sensor_id;sensor_type;location;lat;lon;timestamp;temperature;humidity
38938;DHT22;24727;51.974;20.868;2024-03-08T00:00:15;-2.30;1.00
38938;DHT22;24727;51.974;20.868;2024-03-08T00:02:44;-2.30;1.00
38938;DHT22;24727;51.974;20.868;2024-03-08T00:05:11;-2.30;1.00
38938;DHT22;24727;51.974;20.868;2024-03-08T00:07:38;-2.30;1.00
38938;DHT22;24727;51.974;20.868;2024-03-08T00:10:05;-2.30;1.00
38938;DHT22;24727;51.974;20.868;2024-03-08T00:12:32;-2.40;1.00
38938;DHT22;24727;51.974;20.868;2024-03-08T00:14:58;-2.40;1.00
38938;DHT22;24727;51.974;20.868;2024-03-08T00:17:24;-2.40;1.00
38938;DHT22;24727;51.974;20.868;2024-03-08T00:19:50;-2.40;1.00
38938;DHT22;24727;51.974;20.868;2024-03-08T00:22:17;-2.40;1.00
38938;DHT22;24727;51.974;20.868;2024-03-08T00:24:43;-2.30;1.00
38938;DHT22;24727;51.974;20.868;2024-03-08T00:27:09;-2.40;1.00
38938;DHT22;24727;51.974;20.868;2024-03-08T00:29:35;-2.50;1.00
38938;DHT22;24727;51.974;20.868;2024-03-08T00:32:01;-2.50;1.00
38938;DHT22;24727;51.974;20.868;2024-03-08T00:34:27;-2.50;1.00
38938;DHT22;24727;51.974;20.868;2024-03-08T00:36:53;-2.50;1.00
38938;DHT22;24727;51.974;20.868;2024-03-08T00:39:19;-2.40;1.00
38938;DHT22;24727;51.974;20.868;2024-03-08T00:41:48;-2.40;1.00
38938;DHT22;24727;51.974;20.868;2024-03-08T00:44:14;-2.40;1.00
38938;DHT22;24727;51.974;20.868;2024-03-08T00:46:39;-2.40;1.00
38938;DHT22;24727;51.974;20.868;2024-03-08T00:49:05;-2.50;1.00
38938;DHT22;24727;51.974;20.868;2024-03-08T00:51:32;-2.50;1.00
38938;DHT22;24727;51.974;20.868;2024-03-08T00:53:58;-2.50;1.00
38938;DHT22;24727;51.974;20.868;2024-03-08T00:56:23;-2.50;1.00
38938;DHT22;24727;51.974;20.868;2024-03-08T00:58:50;-2.60;1.00
38938;DHT22;24727;51.974;20.868;2024-03-08T01:01:18;-2.60;1.00
38938;DHT22;24727;51.974;20.868;2024-03-08T01:03:44;-2.60;1.00
38938;DHT22;24727;51.974;20.868;2024-03-08T01:06:10;-2.70;1.00
38938;DHT22;24727;51.974;20.868;2024-03-08T01:08:37;-2.70;1.00
38938;DHT22;24727;51.974;20.868;2024-03-08T01:11:06;-2.70;1.00
38938;DHT22;24727;51.974;20.868;2024-03-08T01:13:32;-2.70;1.00
38938;DHT22;24727;51.974;20.868;2024-03-08T01:15:58;-2.80;1.00
38938;DHT22;24727;51.974;20.868;2024-03-08T01:18:24;-2.80;1.00
38938;DHT22;24727;51.974;20.868;2024-03-08T01:20:49;-2.90;1.00
38938;DHT22;24727;51.974;20.868;2024-03-08T01:23:16;-3.00;1.00
38938;DHT22;24727;51.974;20.868;2024-03-08T01:25:42;-3.00;1.00
38938;DHT22;24727;51.974;20.868;2024-03-08T01:28:09;-3.10;1.00
38938;DHT22;24727;51.974;20.868;2024-03-08T01:30:35;-3.10;1.00
38938;DHT22;24727;51.974;20.868;2024-03-08T01:33:02;-3.20;1.00
38938;DHT22;24727;51.974;20.868;2024-03-08T01:35:28;-3.20;1.00
38938;DHT22;24727;51.974;20.868;2024-03-08T01:37:54;-3.30;1.00
38938;DHT22;24727;51.974;20.868;2024-03-08T01:40:20;-3.40;1.00
38938;DHT22;24727;51.974;20.868;2024-03-08T01:42:46;-3.40;1.00
38938;DHT22;24727;51.974;20.868;2024-03-08T01:45:13;-3.40;1.00
38938;DHT22;24727;51.974;20.868;2024-03-08T01:47:39;-3.50;1.00
38938;DHT22;24727;51.974;20.868;2024-03-08T01:50:05;-3.50;1.00
38938;DHT22;24727;51.974;20.868;2024-03-08T01:52:33;-3.50;1.00
38938;DHT22;24727;51.974;20.868;2024-03-08T01:55:03;-3.50;1.00
38938;DHT22;24727;51.974;20.868;2024-03-08T01:57:32;-3.50;1.00
38938;DHT22;24727;51.974;20.868;2024-03-08T02:00:03;-3.50;1.00
38938;DHT22;24727;51.974;20.868;2024-03-08T02:02:32;-3.60;1.00
38938;DHT22;24727;51.974;20.868;2024-03-08T02:05:00;-3.60;1.00
38938;DHT22;24727;51.974;20.868;2024-03-08T02:07:26;-3.60;1.00
38938;DHT22;24727;51.974;20.868;2024-03-08T02:09:52;-3.60;1.00
38938;DHT22;24727;51.974;20.868;2024-03-08T02:12:18;-3.60;1.00
38938;DHT22;24727;51.974;20.868;2024-03-08T02:14:46;-3.70;1.00
38938;DHT22;24727;51.974;20.868;2024-03-08T02:17:12;-3.60;1.00
38938;DHT22;24727;51.974;20.868;2024-03-08T02:19:38;-3.70;1.00
38938;DHT22;24727;51.974;20.868;2024-03-08T02:22:05;-3.70;1.00
38938;DHT22;24727;51.974;20.868;2024-03-08T02:24:32;-3.70;1.00
38938;DHT22;24727;51.974;20.868;2024-03-08T02:26:58;-3.70;1.00
38938;DHT22;24727;51.974;20.868;2024-03-08T02:29:24;-3.70;1.00
38938;DHT22;24727;51.974;20.868;2024-03-08T02:31:53;-3.70;1.00
38938;DHT22;24727;51.974;20.868;2024-03-08T02:34:21;-3.70;1.00
38938;DHT22;24727;51.974;20.868;2024-03-08T02:36:46;-3.70;1.00
38938;DHT22;24727;51.974;20.868;2024-03-08T02:39:12;-3.70;1.00
38938;DHT22;24727;51.974;20.868;2024-03-08T02:41:38;-3.70;1.00
38938;DHT22;24727;51.974;20.868;2024-03-08T02:44:04;-3.70;1.00
38938;DHT22;24727;51.974;20.868;2024-03-08T02:46:30;-3.70;1.00
38938;DHT22;24727;51.974;20.868;2024-03-08T02:48:56;-3.80;1.00
38938;DHT22;24727;51.974;20.868;2024-03-08T02:51:22;-3.80;1.00
38938;DHT22;24727;51.974;20.868;2024-03-08T02:53:47;-3.80;1.00
38938;DHT22;24727;51.974;20.868;2024-03-08T02:56:15;-3.80;1.00
38938;DHT22;24727;51.974;20.868;2024-03-08T02:58:42;-3.80;1.00
38938;DHT22;24727;51.974;20.868;2024-03-08T03:01:08;-3.80;1.00
38938;DHT22;24727;51.974;20.868;2024-03-08T03:03:36;-3.80;1.00
38938;DHT22;24727;51.974;20.868;2024-03-08T03:06:02;-3.80;1.00
38938;DHT22;24727;51.974;20.868;2024-03-08T03:08:28;-3.80;1.00
38938;DHT22;24727;51.974;20.868;2024-03-08T03:10:54;-3.80;1.00
38938;DHT22;24727;51.974;20.868;2024-03-08T03:13:22;-3.90;1.00
38938;DHT22;24727;51.974;20.868;2024-03-08T03:15:48;-3.80;1.00
38938;DHT22;24727;51.974;20.868;2024-03-08T03:18:14;-3.80;1.00
38938;DHT22;24727;51.974;20.868;2024-03-08T03:20:41;-3.80;1.00
38938;DHT22;24727;51.974;20.868;2024-03-08T03:23:08;-3.80;1.00
38938;DHT22;24727;51.974;20.868;2024-03-08T03:25:35;-3.90;1.00
38938;DHT22;24727;51.974;20.868;2024-03-08T03:28:03;-3.90;1.00
38938;DHT22;24727;51.974;20.868;2024-03-08T03:30:30;-3.90;1.00
38938;DHT22;24727;51.974;20.868;2024-03-08T03:33:02;-3.90;1.00
38938;DHT22;24727;51.974;20.868;2024-03-08T03:35:32;-4.00;1.00
38938;DHT22;24727;51.974;20.868;2024-03-08T03:37:58;-3.90;1.00
38938;DHT22;24727;51.974;20.868;2024-03-08T03:40:30;-3.90;1.00
38938;DHT22;24727;51.974;20.868;2024-03-08T03:42:57;-3.90;1.00
38938;DHT22;24727;51.974;20.868;2024-03-08T03:45:24;-3.90;1.00
38938;DHT22;24727;51.974;20.868;2024-03-08T03:47:50;-3.90;1.00
38938;DHT22;24727;51.974;20.868;2024-03-08T03:50:17;-3.90;1.00
38938;DHT22;24727;51.974;20.868;2024-03-08T03:52:48;-3.90;1.00
38938;DHT22;24727;51.974;20.868;2024-03-08T03:55:14;-4.00;1.00
38938;DHT22;24727;51.974;20.868;2024-03-08T03:57:40;-4.00;1.00
38938;DHT22;24727;51.974;20.868;2024-03-08T04:00:07;-4.00;1.00
38938;DHT22;24727;51.974;20.868;2024-03-08T04:02:37;-4.00;1.00
38938;DHT22;24727;51.974;20.868;2024-03-08T04:05:05;-4.00;1.00
38938;DHT22;24727;51.974;20.868;2024-03-08T04:07:32;-4.00;1.00
38938;DHT22;24727;51.974;20.868;2024-03-08T04:09:57;-4.10;1.00
38938;DHT22;24727;51.974;20.868;2024-03-08T04:12:23;-4.10;1.00
38938;DHT22;24727;51.974;20.868;2024-03-08T04:14:49;-4.10;1.00
38938;DHT22;24727;51.974;20.868;2024-03-08T04:17:15;-4.10;1.00
38938;DHT22;24727;51.974;20.868;2024-03-08T04:19:42;-4.10;1.00
38938;DHT22;24727;51.974;20.868;2024-03-08T04:22:08;-4.10;1.00
38938;DHT22;24727;51.974;20.868;2024-03-08T04:24:34;-4.00;1.00
38938;DHT22;24727;51.974;20.868;2024-03-08T04:27:00;-4.00;1.00
38938;DHT22;24727;51.974;20.868;2024-03-08T04:29:25;-3.90;1.00
38938;DHT22;24727;51.974;20.868;2024-03-08T04:31:52;-3.90;1.00
38938;DHT22;24727;51.974;20.868;2024-03-08T04:34:20;-3.90;1.00
38938;DHT22;24727;51.974;20.868;2024-03-08T04:36:48;-3.90;1.00
38938;DHT22;24727;51.974;20.868;2024-03-08T04:39:13;-3.90;1.00
38938;DHT22;24727;51.974;20.868;2024-03-08T04:41:41;-4.00;1.00
38938;DHT22;24727;51.974;20.868;2024-03-08T04:44:10;-4.00;1.00
38938;DHT22;24727;51.974;20.868;2024-03-08T04:46:36;-4.10;1.00
38938;DHT22;24727;51.974;20.868;2024-03-08T04:49:02;-4.10;1.00
38938;DHT22;24727;51.974;20.868;2024-03-08T04:51:28;-4.20;1.00
38938;DHT22;24727;51.974;20.868;2024-03-08T04:53:53;-4.10;1.00
38938;DHT22;24727;51.974;20.868;2024-03-08T04:56:19;-4.20;1.00
38938;DHT22;24727;51.974;20.868;2024-03-08T04:58:45;-4.10;1.00
38938;DHT22;24727;51.974;20.868;2024-03-08T05:01:15;-4.20;1.00
38938;DHT22;24727;51.974;20.868;2024-03-08T05:03:41;-4.20;1.00
38938;DHT22;24727;51.974;20.868;2024-03-08T05:06:07;-4.20;1.00
38938;DHT22;24727;51.974;20.868;2024-03-08T05:11:20;-4.20;1.00
38938;DHT22;24727;51.974;20.868;2024-03-08T05:13:46;-4.20;1.00
38938;DHT22;24727;51.974;20.868;2024-03-08T05:16:12;-4.20;1.00
38938;DHT22;24727;51.974;20.868;2024-03-08T05:18:41;-4.10;1.00
38938;DHT22;24727;51.974;20.868;2024-03-08T05:21:07;-4.10;1.00
38938;DHT22;24727;51.974;20.868;2024-03-08T05:23:35;-4.00;1.00
38938;DHT22;24727;51.974;20.868;2024-03-08T05:26:00;-4.10;1.00
38938;DHT22;24727;51.974;20.868;2024-03-08T05:28:26;-4.00;1.00
38938;DHT22;24727;51.974;20.868;2024-03-08T05:30:52;-4.00;1.00
38938;DHT22;24727;51.974;20.868;2024-03-08T05:33:18;-4.00;1.00
38938;DHT22;24727;51.974;20.868;2024-03-08T05:35:45;-4.00;1.00
38938;DHT22;24727;51.974;20.868;2024-03-08T05:38:10;-3.90;1.00
38938;DHT22;24727;51.974;20.868;2024-03-08T05:40:38;-3.90;1.00
38938;DHT22;24727;51.974;20.868;2024-03-08T05:43:04;-3.90;1.00
38938;DHT22;24727;51.974;20.868;2024-03-08T05:45:30;-3.90;1.00
38938;DHT22;24727;51.974;20.868;2024-03-08T05:47:56;-3.80;1.00
38938;DHT22;24727;51.974;20.868;2024-03-08T05:50:22;-3.80;1.00
38938;DHT22;24727;51.974;20.868;2024-03-08T05:52:48;-3.70;1.00
38938;DHT22;24727;51.974;20.868;2024-03-08T05:55:15;-3.60;1.00
38938;DHT22;24727;51.974;20.868;2024-03-08T05:57:41;-3.50;1.00
38938;DHT22;24727;51.974;20.868;2024-03-08T06:00:08;-3.40;1.00
38938;DHT22;24727;51.974;20.868;2024-03-08T06:02:37;-3.30;1.00
38938;DHT22;24727;51.974;20.868;2024-03-08T06:05:11;-3.20;1.00
38938;DHT22;24727;51.974;20.868;2024-03-08T06:07:37;-3.10;1.00
38938;DHT22;24727;51.974;20.868;2024-03-08T06:10:08;-2.90;1.00
38938;DHT22;24727;51.974;20.868;2024-03-08T06:12:36;-2.80;1.00
38938;DHT22;24727;51.974;20.868;2024-03-08T06:15:06;-2.70;1.00
38938;DHT22;24727;51.974;20.868;2024-03-08T06:17:32;-2.60;1.00
38938;DHT22;24727;51.974;20.868;2024-03-08T06:19:59;-2.50;1.00
38938;DHT22;24727;51.974;20.868;2024-03-08T06:22:25;-2.40;1.00
38938;DHT22;24727;51.974;20.868;2024-03-08T06:24:51;-2.30;1.00
38938;DHT22;24727;51.974;20.868;2024-03-08T06:27:17;-2.20;1.00
38938;DHT22;24727;51.974;20.868;2024-03-08T06:29:43;-2.00;1.00
38938;DHT22;24727;51.974;20.868;2024-03-08T06:32:08;-2.00;1.00
38938;DHT22;24727;51.974;20.868;2024-03-08T06:34:34;-1.80;1.00
38938;DHT22;24727;51.974;20.868;2024-03-08T06:37:00;-1.70;1.00
38938;DHT22;24727;51.974;20.868;2024-03-08T06:39:27;-1.60;1.00
38938;DHT22;24727;51.974;20.868;2024-03-08T06:41:57;-1.50;1.00
38938;DHT22;24727;51.974;20.868;2024-03-08T06:44:23;-1.30;1.00
38938;DHT22;24727;51.974;20.868;2024-03-08T06:46:48;-1.30;1.00
38938;DHT22;24727;51.974;20.868;2024-03-08T06:49:14;-1.20;1.00
38938;DHT22;24727;51.974;20.868;2024-03-08T06:51:41;-1.10;1.00
38938;DHT22;24727;51.974;20.868;2024-03-08T06:54:07;-1.00;1.00
38938;DHT22;24727;51.974;20.868;2024-03-08T06:56:35;-0.90;1.00
38938;DHT22;24727;51.974;20.868;2024-03-08T06:59:00;-0.80;1.00
38938;DHT22;24727;51.974;20.868;2024-03-08T07:01:29;-0.70;1.00
38938;DHT22;24727;51.974;20.868;2024-03-08T07:03:58;-0.60;1.00
38938;DHT22;24727;51.974;20.868;2024-03-08T07:06:24;-0.50;1.00
38938;DHT22;24727;51.974;20.868;2024-03-08T07:08:50;-0.40;1.00
38938;DHT22;24727;51.974;20.868;2024-03-08T07:11:16;-0.30;1.00
38938;DHT22;24727;51.974;20.868;2024-03-08T07:13:45;-0.20;1.00
38938;DHT22;24727;51.974;20.868;2024-03-08T07:16:11;0.00;1.00
38938;DHT22;24727;51.974;20.868;2024-03-08T07:18:37;0.10;1.00
38938;DHT22;24727;51.974;20.868;2024-03-08T07:21:09;0.20;1.00
38938;DHT22;24727;51.974;20.868;2024-03-08T07:23:36;0.40;1.00
38938;DHT22;24727;51.974;20.868;2024-03-08T07:26:20;0.60;1.00
38938;DHT22;24727;51.974;20.868;2024-03-08T07:28:46;0.70;1.00
38938;DHT22;24727;51.974;20.868;2024-03-08T07:31:12;0.90;1.00
38938;DHT22;24727;51.974;20.868;2024-03-08T07:33:46;1.00;1.00
38938;DHT22;24727;51.974;20.868;2024-03-08T07:36:12;1.20;1.00
38938;DHT22;24727;51.974;20.868;2024-03-08T07:38:40;1.30;1.00
38938;DHT22;24727;51.974;20.868;2024-03-08T07:41:06;1.50;1.00
38938;DHT22;24727;51.974;20.868;2024-03-08T07:43:32;1.70;1.00
38938;DHT22;24727;51.974;20.868;2024-03-08T07:46:01;1.80;1.00
38938;DHT22;24727;51.974;20.868;2024-03-08T07:48:26;2.00;1.00
38938;DHT22;24727;51.974;20.868;2024-03-08T07:50:52;2.20;1.00
38938;DHT22;24727;51.974;20.868;2024-03-08T07:53:18;2.40;1.00
38938;DHT22;24727;51.974;20.868;2024-03-08T07:55:44;2.50;1.00
38938;DHT22;24727;51.974;20.868;2024-03-08T07:58:10;2.70;1.40
38938;DHT22;24727;51.974;20.868;2024-03-08T08:00:36;2.80;99.90
38938;DHT22;24727;51.974;20.868;2024-03-08T08:03:03;2.90;99.90
38938;DHT22;24727;51.974;20.868;2024-03-08T08:05:29;3.00;99.90
38938;DHT22;24727;51.974;20.868;2024-03-08T08:07:55;3.00;99.90
38938;DHT22;24727;51.974;20.868;2024-03-08T08:10:21;3.10;99.90
38938;DHT22;24727;51.974;20.868;2024-03-08T08:12:48;3.30;99.90
38938;DHT22;24727;51.974;20.868;2024-03-08T08:20:42;3.90;99.90
38938;DHT22;24727;51.974;20.868;2024-03-08T08:27:09;4.30;1.00
38938;DHT22;24727;51.974;20.868;2024-03-08T08:29:37;4.10;99.90
38938;DHT22;24727;51.974;20.868;2024-03-08T08:32:15;4.30;99.90
38938;DHT22;24727;51.974;20.868;2024-03-08T08:35:09;4.50;1.00
38938;DHT22;24727;51.974;20.868;2024-03-08T08:37:49;4.50;99.90
38938;DHT22;24727;51.974;20.868;2024-03-08T08:48:18;4.50;99.90
38938;DHT22;24727;51.974;20.868;2024-03-08T08:51:22;4.40;99.90
38938;DHT22;24727;51.974;20.868;2024-03-08T08:54:11;4.70;99.90
38938;DHT22;24727;51.974;20.868;2024-03-08T08:56:46;5.30;99.90
38938;DHT22;24727;51.974;20.868;2024-03-08T08:59:21;5.80;1.00
38938;DHT22;24727;51.974;20.868;2024-03-08T09:01:51;6.00;1.00
38938;DHT22;24727;51.974;20.868;2024-03-08T09:04:28;6.20;1.00
38938;DHT22;24727;51.974;20.868;2024-03-08T09:06:55;6.00;99.90
38938;DHT22;24727;51.974;20.868;2024-03-08T09:09:29;6.20;1.00
38938;DHT22;24727;51.974;20.868;2024-03-08T09:12:01;6.50;1.00
38938;DHT22;24727;51.974;20.868;2024-03-08T09:14:28;6.40;99.90
38938;DHT22;24727;51.974;20.868;2024-03-08T09:17:05;6.60;99.90
38938;DHT22;24727;51.974;20.868;2024-03-08T09:19:34;6.60;99.90
38938;DHT22;24727;51.974;20.868;2024-03-08T09:22:01;6.00;99.90
38938;DHT22;24727;51.974;20.868;2024-03-08T09:24:30;6.00;99.90
38938;DHT22;24727;51.974;20.868;2024-03-08T09:27:12;6.50;99.90
38938;DHT22;24727;51.974;20.868;2024-03-08T09:29:58;6.90;1.00
38938;DHT22;24727;51.974;20.868;2024-03-08T09:32:27;7.30;1.00
38938;DHT22;24727;51.974;20.868;2024-03-08T09:35:13;7.50;1.00
38938;DHT22;24727;51.974;20.868;2024-03-08T09:37:41;7.80;1.00
38938;DHT22;24727;51.974;20.868;2024-03-08T09:40:11;7.90;99.90
38938;DHT22;24727;51.974;20.868;2024-03-08T09:46:34;8.00;99.90
38938;DHT22;24727;51.974;20.868;2024-03-08T09:49:07;7.70;99.90
38938;DHT22;24727;51.974;20.868;2024-03-08T09:51:34;7.80;99.90
38938;DHT22;24727;51.974;20.868;2024-03-08T09:54:05;8.00;1.00
38938;DHT22;24727;51.974;20.868;2024-03-08T09:56:54;7.70;99.90
38938;DHT22;24727;51.974;20.868;2024-03-08T09:59:31;8.10;99.90
38938;DHT22;24727;51.974;20.868;2024-03-08T10:02:12;8.40;99.90
38938;DHT22;24727;51.974;20.868;2024-03-08T10:04:41;8.10;99.90
38938;DHT22;24727;51.974;20.868;2024-03-08T10:07:26;8.60;99.90
38938;DHT22;24727;51.974;20.868;2024-03-08T10:13:26;8.80;99.90
38938;DHT22;24727;51.974;20.868;2024-03-08T10:15:56;8.70;99.90
38938;DHT22;24727;51.974;20.868;2024-03-08T10:18:42;8.80;99.90
38938;DHT22;24727;51.974;20.868;2024-03-08T10:24:39;8.50;99.90
38938;DHT22;24727;51.974;20.868;2024-03-08T10:27:36;8.90;99.90
38938;DHT22;24727;51.974;20.868;2024-03-08T10:30:17;8.90;99.90
38938;DHT22;24727;51.974;20.868;2024-03-08T10:36:12;9.60;99.90
38938;DHT22;24727;51.974;20.868;2024-03-08T10:38:39;9.70;99.90
38938;DHT22;24727;51.974;20.868;2024-03-08T10:41:07;9.60;99.90
38938;DHT22;24727;51.974;20.868;2024-03-08T10:43:56;9.70;99.90
38938;DHT22;24727;51.974;20.868;2024-03-08T10:47:03;9.20;99.90
38938;DHT22;24727;51.974;20.868;2024-03-08T10:53:47;9.60;99.90
38938;DHT22;24727;51.974;20.868;2024-03-08T10:55:54;9.80;99.90
38938;DHT22;24727;51.974;20.868;2024-03-08T10:58:22;10.20;99.90
38938;DHT22;24727;51.974;20.868;2024-03-08T11:00:56;10.00;99.90
38938;DHT22;24727;51.974;20.868;2024-03-08T11:04:03;9.50;99.90
38938;DHT22;24727;51.974;20.868;2024-03-08T11:14:54;10.30;99.90
38938;DHT22;24727;51.974;20.868;2024-03-08T11:17:45;10.20;99.90
38938;DHT22;24727;51.974;20.868;2024-03-08T11:20:14;9.60;99.90
38938;DHT22;24727;51.974;20.868;2024-03-08T11:23:09;10.00;99.90
38938;DHT22;24727;51.974;20.868;2024-03-08T11:28:18;9.60;99.90
38938;DHT22;24727;51.974;20.868;2024-03-08T11:30:47;9.80;99.90
38938;DHT22;24727;51.974;20.868;2024-03-08T11:33:35;9.70;99.90
38938;DHT22;24727;51.974;20.868;2024-03-08T11:38:43;10.40;99.90
38938;DHT22;24727;51.974;20.868;2024-03-08T11:41:21;10.40;99.90
38938;DHT22;24727;51.974;20.868;2024-03-08T11:43:47;10.60;99.90
38938;DHT22;24727;51.974;20.868;2024-03-08T11:46:15;10.70;99.90
38938;DHT22;24727;51.974;20.868;2024-03-08T11:48:42;10.40;99.90
38938;DHT22;24727;51.974;20.868;2024-03-08T11:51:08;10.50;99.90
38938;DHT22;24727;51.974;20.868;2024-03-08T11:53:39;10.60;99.90
38938;DHT22;24727;51.974;20.868;2024-03-08T11:56:10;9.80;99.90
38938;DHT22;24727;51.974;20.868;2024-03-08T11:58:37;9.80;99.90
38938;DHT22;24727;51.974;20.868;2024-03-08T12:01:07;10.20;99.90
38938;DHT22;24727;51.974;20.868;2024-03-08T12:03:38;9.60;99.90
38938;DHT22;24727;51.974;20.868;2024-03-08T12:06:04;9.90;99.90
38938;DHT22;24727;51.974;20.868;2024-03-08T12:08:31;10.30;99.90
38938;DHT22;24727;51.974;20.868;2024-03-08T12:10:57;10.40;99.90
38938;DHT22;24727;51.974;20.868;2024-03-08T12:13:31;10.80;99.90
38938;DHT22;24727;51.974;20.868;2024-03-08T12:16:03;10.90;99.90
38938;DHT22;24727;51.974;20.868;2024-03-08T12:18:33;11.10;99.90
38938;DHT22;24727;51.974;20.868;2024-03-08T12:21:11;11.20;99.90
38938;DHT22;24727;51.974;20.868;2024-03-08T12:23:38;11.20;99.90
38938;DHT22;24727;51.974;20.868;2024-03-08T12:26:29;10.60;99.90
38938;DHT22;24727;51.974;20.868;2024-03-08T12:29:14;10.60;99.90
38938;DHT22;24727;51.974;20.868;2024-03-08T12:31:42;10.80;99.90
38938;DHT22;24727;51.974;20.868;2024-03-08T12:34:08;10.90;99.90
38938;DHT22;24727;51.974;20.868;2024-03-08T12:36:35;11.00;99.90
38938;DHT22;24727;51.974;20.868;2024-03-08T12:39:06;10.80;99.90
38938;DHT22;24727;51.974;20.868;2024-03-08T12:41:40;11.10;99.90
38938;DHT22;24727;51.974;20.868;2024-03-08T12:44:06;10.90;99.90
38938;DHT22;24727;51.974;20.868;2024-03-08T12:46:37;10.80;99.90
38938;DHT22;24727;51.974;20.868;2024-03-08T12:49:08;11.10;99.90
38938;DHT22;24727;51.974;20.868;2024-03-08T12:51:38;11.30;99.90
38938;DHT22;24727;51.974;20.868;2024-03-08T12:54:05;11.20;99.90
38938;DHT22;24727;51.974;20.868;2024-03-08T12:56:34;11.40;99.90
38938;DHT22;24727;51.974;20.868;2024-03-08T12:59:00;11.60;99.90
38938;DHT22;24727;51.974;20.868;2024-03-08T13:01:27;10.80;99.90
38938;DHT22;24727;51.974;20.868;2024-03-08T13:03:53;11.00;99.90
38938;DHT22;24727;51.974;20.868;2024-03-08T13:06:21;10.80;99.90
38938;DHT22;24727;51.974;20.868;2024-03-08T13:08:54;10.80;99.90
38938;DHT22;24727;51.974;20.868;2024-03-08T13:11:21;11.10;99.90
38938;DHT22;24727;51.974;20.868;2024-03-08T13:13:49;11.30;99.90
38938;DHT22;24727;51.974;20.868;2024-03-08T13:16:15;11.10;99.90
38938;DHT22;24727;51.974;20.868;2024-03-08T13:18:42;11.20;99.90
38938;DHT22;24727;51.974;20.868;2024-03-08T13:21:10;11.20;99.90
38938;DHT22;24727;51.974;20.868;2024-03-08T13:23:37;11.40;99.90
38938;DHT22;24727;51.974;20.868;2024-03-08T13:26:10;11.50;99.90
38938;DHT22;24727;51.974;20.868;2024-03-08T13:28:47;11.10;99.90
38938;DHT22;24727;51.974;20.868;2024-03-08T13:31:14;11.10;99.90
38938;DHT22;24727;51.974;20.868;2024-03-08T13:33:40;11.30;99.90
38938;DHT22;24727;51.974;20.868;2024-03-08T13:36:11;11.10;99.90
38938;DHT22;24727;51.974;20.868;2024-03-08T13:38:47;11.30;99.90
38938;DHT22;24727;51.974;20.868;2024-03-08T13:41:14;11.60;99.90
38938;DHT22;24727;51.974;20.868;2024-03-08T13:43:46;11.30;99.90
38938;DHT22;24727;51.974;20.868;2024-03-08T13:46:12;12.80;99.90
38938;DHT22;24727;51.974;20.868;2024-03-08T13:48:38;13.90;99.90
38938;DHT22;24727;51.974;20.868;2024-03-08T13:51:05;13.90;99.90
38938;DHT22;24727;51.974;20.868;2024-03-08T13:53:36;13.70;99.90
38938;DHT22;24727;51.974;20.868;2024-03-08T13:56:02;12.60;99.90
38938;DHT22;24727;51.974;20.868;2024-03-08T13:58:29;11.60;99.90
38938;DHT22;24727;51.974;20.868;2024-03-08T14:00:55;11.80;99.90
38938;DHT22;24727;51.974;20.868;2024-03-08T14:03:21;11.70;99.90
38938;DHT22;24727;51.974;20.868;2024-03-08T14:05:47;11.70;99.90
38938;DHT22;24727;51.974;20.868;2024-03-08T14:08:13;11.70;99.90
38938;DHT22;24727;51.974;20.868;2024-03-08T14:10:39;11.70;99.90
38938;DHT22;24727;51.974;20.868;2024-03-08T14:13:06;11.50;99.90
38938;DHT22;24727;51.974;20.868;2024-03-08T14:15:32;11.40;99.90
38938;DHT22;24727;51.974;20.868;2024-03-08T14:17:59;11.20;99.90
38938;DHT22;24727;51.974;20.868;2024-03-08T14:20:25;11.10;99.90
38938;DHT22;24727;51.974;20.868;2024-03-08T14:22:54;11.10;99.90
38938;DHT22;24727;51.974;20.868;2024-03-08T14:25:21;10.70;99.90
38938;DHT22;24727;51.974;20.868;2024-03-08T14:27:49;10.80;99.90
38938;DHT22;24727;51.974;20.868;2024-03-08T14:30:15;10.90;99.90
38938;DHT22;24727;51.974;20.868;2024-03-08T14:33:04;10.80;99.90
38938;DHT22;24727;51.974;20.868;2024-03-08T14:35:31;10.80;99.90
38938;DHT22;24727;51.974;20.868;2024-03-08T14:37:57;10.40;99.90
38938;DHT22;24727;51.974;20.868;2024-03-08T14:40:42;10.00;99.90
38938;DHT22;24727;51.974;20.868;2024-03-08T14:43:12;9.80;99.90
38938;DHT22;24727;51.974;20.868;2024-03-08T14:45:39;10.10;99.90
38938;DHT22;24727;51.974;20.868;2024-03-08T14:48:07;10.20;99.90
38938;DHT22;24727;51.974;20.868;2024-03-08T14:50:33;10.40;99.90
38938;DHT22;24727;51.974;20.868;2024-03-08T14:52:58;10.40;99.90
38938;DHT22;24727;51.974;20.868;2024-03-08T14:55:26;10.60;99.90
38938;DHT22;24727;51.974;20.868;2024-03-08T14:57:52;10.80;99.90
38938;DHT22;24727;51.974;20.868;2024-03-08T15:00:20;10.90;99.90
38938;DHT22;24727;51.974;20.868;2024-03-08T15:03:05;11.00;99.90
38938;DHT22;24727;51.974;20.868;2024-03-08T15:05:35;11.00;99.90
38938;DHT22;24727;51.974;20.868;2024-03-08T15:08:06;10.90;99.90
38938;DHT22;24727;51.974;20.868;2024-03-08T15:10:35;11.00;99.90
38938;DHT22;24727;51.974;20.868;2024-03-08T15:13:01;11.30;99.90
38938;DHT22;24727;51.974;20.868;2024-03-08T15:15:33;11.50;99.90
38938;DHT22;24727;51.974;20.868;2024-03-08T15:17:59;11.40;99.90
38938;DHT22;24727;51.974;20.868;2024-03-08T15:20:25;11.10;99.90
38938;DHT22;24727;51.974;20.868;2024-03-08T15:22:54;10.80;99.90
38938;DHT22;24727;51.974;20.868;2024-03-08T15:25:21;10.60;99.90
38938;DHT22;24727;51.974;20.868;2024-03-08T15:27:52;10.60;99.90
38938;DHT22;24727;51.974;20.868;2024-03-08T15:30:19;10.50;99.90
38938;DHT22;24727;51.974;20.868;2024-03-08T15:32:48;10.50;99.90
38938;DHT22;24727;51.974;20.868;2024-03-08T15:35:16;10.50;99.90
38938;DHT22;24727;51.974;20.868;2024-03-08T15:37:49;10.20;99.90
38938;DHT22;24727;51.974;20.868;2024-03-08T15:40:15;10.10;99.90
38938;DHT22;24727;51.974;20.868;2024-03-08T15:48:38;9.40;99.90
38938;DHT22;24727;51.974;20.868;2024-03-08T15:51:09;9.50;99.90
38938;DHT22;24727;51.974;20.868;2024-03-08T15:53:39;9.70;99.90
38938;DHT22;24727;51.974;20.868;2024-03-08T15:56:05;9.70;99.90
38938;DHT22;24727;51.974;20.868;2024-03-08T15:58:35;9.60;99.90
38938;DHT22;24727;51.974;20.868;2024-03-08T16:01:02;9.50;99.90
38938;DHT22;24727;51.974;20.868;2024-03-08T16:03:48;9.40;99.90
38938;DHT22;24727;51.974;20.868;2024-03-08T16:06:19;9.30;99.90
38938;DHT22;24727;51.974;20.868;2024-03-08T16:09:03;9.10;99.90
38938;DHT22;24727;51.974;20.868;2024-03-08T16:11:29;8.90;99.90
38938;DHT22;24727;51.974;20.868;2024-03-08T16:14:00;8.70;99.90
38938;DHT22;24727;51.974;20.868;2024-03-08T16:20:05;8.20;99.90
38938;DHT22;24727;51.974;20.868;2024-03-08T16:26:15;7.90;99.90
38938;DHT22;24727;51.974;20.868;2024-03-08T16:28:51;7.60;99.90
38938;DHT22;24727;51.974;20.868;2024-03-08T16:31:40;7.50;1.00
38938;DHT22;24727;51.974;20.868;2024-03-08T16:40:56;7.00;99.90
38938;DHT22;24727;51.974;20.868;2024-03-08T16:43:27;6.80;1.00
38938;DHT22;24727;51.974;20.868;2024-03-08T16:45:53;6.80;1.00
38938;DHT22;24727;51.974;20.868;2024-03-08T16:48:30;6.70;1.00
38938;DHT22;24727;51.974;20.868;2024-03-08T16:50:57;6.70;1.00